Time;durP1;ratioP1;P1;durP2;ratioP2;P2;SDS_P1;SDS_P2;PMS_P1;PMS_P2;Temp;Humidity;BMP_temperature;BMP_pressure;BME280_temperature;BME280_humidity;BME280_pressure;Samples;Min_cycle;Max_cycle;Signal;HPM_P1;HPM_P2
2022/09/12 00:02:22;;;;;;;;;;;19.10;99.90;;;;;;5023480;28;20088;-64
2022/09/12 00:04:50;;;;;;;;;;;19.10;99.90;;;;;;5034542;28;20308;-62
2022/09/12 00:07:19;;;;;;;;;;;19.10;99.90;;;;;;5034496;28;20209;-62
2022/09/12 00:09:46;;;;;;;;;;;19.20;99.90;;;;;;5038371;28;20245;-63
2022/09/12 00:12:14;;;;;;;;;;;19.30;99.90;;;;;;5038228;28;20194;-63
2022/09/12 00:14:42;;;;;;;;;;;19.20;99.90;;;;;;5036184;28;20711;-63
2022/09/12 00:17:09;;;;;;;;;;;19.20;99.90;;;;;;5038536;28;20216;-63
2022/09/12 00:19:37;;;;;;;;;;;19.10;99.90;;;;;;5039035;28;20209;-62
2022/09/12 00:22:05;;;;;;;;;;;19.00;99.90;;;;;;5039854;28;20656;-62
2022/09/12 00:24:34;;;;;;;;;;;18.90;99.90;;;;;;5039801;28;20202;-63
2022/09/12 00:27:02;;;;;;;;;;;18.90;99.90;;;;;;5038572;28;20219;-62
2022/09/12 00:29:30;;;;;;;;;;;18.80;99.90;;;;;;5032192;28;20107;-62
2022/09/12 00:31:57;;;;;;;;;;;18.60;99.90;;;;;;5036902;28;20225;-63
2022/09/12 00:34:25;;;;;;;;;;;18.70;99.90;;;;;;5039125;28;20240;-63
2022/09/12 00:36:53;;;;;;;;;;;18.70;99.90;;;;;;5038453;28;20209;-63
2022/09/12 00:39:20;;;;;;;;;;;18.60;99.90;;;;;;5039583;28;20206;-63
2022/09/12 00:41:50;;;;;;;;;;;18.80;99.90;;;;;;5037499;28;20208;-63
2022/09/12 00:44:36;;;;;;;;;;;18.80;99.90;;;;;;5036197;28;20197;-63
2022/09/12 00:47:05;;;;;;;;;;;18.70;99.90;;;;;;5028758;28;20218;-63
2022/09/12 00:49:34;;;;;;;;;;;18.40;99.90;;;;;;5038156;28;20202;-63
2022/09/12 00:52:05;;;;;;;;;;;18.40;99.90;;;;;;5031611;28;20671;-62
2022/09/12 00:54:34;;;;;;;;;;;18.50;99.90;;;;;;5032940;28;20281;-63
2022/09/12 00:57:06;;;;;;;;;;;18.70;99.90;;;;;;5039388;28;20794;-63
2022/09/12 00:59:38;;;;;;;;;;;18.80;99.90;;;;;;5035960;28;20220;-63
2022/09/12 01:02:06;;;;;;;;;;;18.90;99.90;;;;;;5019151;28;20196;-63
2022/09/12 01:04:35;;;;;;;;;;;18.70;99.90;;;;;;5034607;28;20210;-63
2022/09/12 01:07:03;;;;;;;;;;;18.80;99.90;;;;;;5036655;28;20190;-63
2022/09/12 01:09:31;;;;;;;;;;;18.80;99.90;;;;;;5036270;28;20210;-63
2022/09/12 01:12:01;;;;;;;;;;;18.80;99.90;;;;;;5036581;28;20198;-62
2022/09/12 01:14:30;;;;;;;;;;;18.80;99.90;;;;;;5034598;28;20194;-63
2022/09/12 01:16:58;;;;;;;;;;;18.70;99.90;;;;;;5037054;28;20209;-63
2022/09/12 01:19:40;;;;;;;;;;;18.60;99.90;;;;;;5036406;28;20212;-63
2022/09/12 01:22:16;;;;;;;;;;;18.40;99.90;;;;;;5037417;28;20201;-62
2022/09/12 01:24:51;;;;;;;;;;;18.40;99.90;;;;;;5050879;22;20217;-71
2022/09/12 01:27:25;;;;;;;;;;;18.30;99.90;;;;;;5027676;28;20206;-71
2022/09/12 01:30:16;;;;;;;;;;;18.20;99.90;;;;;;5028833;28;20273;-70
2022/09/12 01:32:50;;;;;;;;;;;18.20;99.90;;;;;;5028491;28;20214;-70
2022/09/12 01:35:21;;;;;;;;;;;18.30;99.90;;;;;;5014676;28;20566;-71
2022/09/12 01:37:53;;;;;;;;;;;17.80;99.90;;;;;;5009562;28;20638;-71
2022/09/12 01:40:23;;;;;;;;;;;17.90;99.90;;;;;;5009545;28;20210;-71
2022/09/12 01:42:53;;;;;;;;;;;17.90;99.90;;;;;;5009603;28;20209;-71
2022/09/12 01:45:26;;;;;;;;;;;18.00;99.90;;;;;;5009573;28;20209;-69
2022/09/12 01:47:57;;;;;;;;;;;18.00;99.90;;;;;;5012699;28;20220;-71
2022/09/12 01:50:27;;;;;;;;;;;18.00;99.90;;;;;;5015107;28;20207;-70
2022/09/12 01:52:56;;;;;;;;;;;18.10;99.90;;;;;;5010166;28;20203;-70
2022/09/12 01:55:25;;;;;;;;;;;18.00;99.90;;;;;;5009418;28;20832;-71
2022/09/12 01:57:56;;;;;;;;;;;17.90;99.90;;;;;;5009525;28;20204;-71
2022/09/12 02:00:25;;;;;;;;;;;17.90;99.90;;;;;;5008979;28;20195;-71
2022/09/12 02:02:57;;;;;;;;;;;17.80;99.90;;;;;;5008695;28;20218;-71
2022/09/12 02:05:28;;;;;;;;;;;17.90;99.90;;;;;;5008464;28;20198;-71
2022/09/12 02:07:58;;;;;;;;;;;17.80;99.90;;;;;;5010289;28;20213;-70
2022/09/12 02:10:30;;;;;;;;;;;17.70;99.90;;;;;;5008696;28;20208;-72
2022/09/12 02:13:01;;;;;;;;;;;17.70;99.90;;;;;;5008383;28;20783;-71
2022/09/12 02:15:33;;;;;;;;;;;17.80;99.90;;;;;;5008375;28;20207;-71
2022/09/12 02:18:02;;;;;;;;;;;18.00;99.90;;;;;;5007250;28;20213;-69
2022/09/12 02:20:33;;;;;;;;;;;18.10;99.90;;;;;;5007894;28;20327;-71
2022/09/12 02:23:19;;;;;;;;;;;18.20;99.90;;;;;;5008817;28;20218;-70
2022/09/12 02:25:48;;;;;;;;;;;18.40;99.90;;;;;;5008333;28;20204;-72
2022/09/12 02:28:18;;;;;;;;;;;18.60;99.90;;;;;;5007053;28;20238;-72
2022/09/12 02:30:50;;;;;;;;;;;18.80;99.90;;;;;;5007563;28;20196;-72
2022/09/12 02:33:25;;;;;;;;;;;18.70;99.90;;;;;;5014736;28;20249;-72
2022/09/12 02:35:54;;;;;;;;;;;18.80;99.90;;;;;;5013462;28;20681;-72
2022/09/12 02:38:25;;;;;;;;;;;18.90;99.90;;;;;;5013897;28;20199;-70
2022/09/12 02:40:53;;;;;;;;;;;18.90;99.90;;;;;;5008853;28;20195;-73
2022/09/12 02:43:20;;;;;;;;;;;18.90;99.90;;;;;;5008373;28;20198;-71
2022/09/12 02:45:49;;;;;;;;;;;18.80;99.90;;;;;;5007939;28;20279;-72
2022/09/12 02:48:20;;;;;;;;;;;18.70;99.90;;;;;;5008069;28;20203;-71
2022/09/12 02:50:47;;;;;;;;;;;18.60;99.90;;;;;;5007556;28;20203;-72
2022/09/12 02:53:15;;;;;;;;;;;18.60;99.90;;;;;;5007811;28;20209;-71
2022/09/12 02:55:43;;;;;;;;;;;18.60;99.90;;;;;;5009386;28;20199;-71
2022/09/12 02:58:12;;;;;;;;;;;18.70;99.90;;;;;;5011439;28;20217;-71
2022/09/12 03:00:42;;;;;;;;;;;18.60;99.90;;;;;;5006176;28;20230;-71
2022/09/12 03:03:20;;;;;;;;;;;18.60;99.90;;;;;;5008006;28;21272;-71
2022/09/12 03:05:52;;;;;;;;;;;18.50;99.90;;;;;;5008431;28;20075;-71
2022/09/12 03:08:36;;;;;;;;;;;18.30;99.90;;;;;;5006862;28;20404;-71
2022/09/12 03:11:14;;;;;;;;;;;18.20;99.90;;;;;;5007624;28;20199;-70
2022/09/12 03:13:49;;;;;;;;;;;18.10;99.90;;;;;;5006275;28;20204;-69
2022/09/12 03:16:20;;;;;;;;;;;17.90;99.90;;;;;;5005336;28;20601;-71
2022/09/12 03:18:52;;;;;;;;;;;17.80;99.90;;;;;;5007491;28;20236;-72
2022/09/12 03:21:23;;;;;;;;;;;17.80;99.90;;;;;;5006316;28;20574;-71
2022/09/12 03:23:59;;;;;;;;;;;17.80;99.90;;;;;;5007096;28;20593;-72
2022/09/12 03:26:30;;;;;;;;;;;17.70;99.90;;;;;;5005643;28;20556;-72
2022/09/12 03:28:58;;;;;;;;;;;17.70;99.90;;;;;;5006181;28;20201;-72
2022/09/12 03:31:26;;;;;;;;;;;17.60;99.90;;;;;;5006789;28;20581;-72
2022/09/12 03:33:55;;;;;;;;;;;17.70;99.90;;;;;;5006604;28;20196;-72
2022/09/12 03:36:24;;;;;;;;;;;17.50;99.90;;;;;;5007644;28;20802;-72
2022/09/12 03:38:52;;;;;;;;;;;17.60;99.90;;;;;;5009128;28;20111;-70
2022/09/12 03:41:20;;;;;;;;;;;17.30;99.90;;;;;;5006295;28;20230;-71
2022/09/12 03:43:47;;;;;;;;;;;17.30;99.90;;;;;;5006321;28;20199;-72
2022/09/12 03:46:15;;;;;;;;;;;17.40;99.90;;;;;;5007385;28;20639;-72
2022/09/12 03:48:43;;;;;;;;;;;17.40;99.90;;;;;;5007358;28;22432;-72
2022/09/12 03:51:12;;;;;;;;;;;17.60;99.90;;;;;;5007390;28;20240;-72
2022/09/12 03:53:40;;;;;;;;;;;17.60;99.90;;;;;;5007566;28;20255;-72
2022/09/12 03:56:08;;;;;;;;;;;17.70;99.90;;;;;;5007125;28;20207;-72
2022/09/12 03:58:36;;;;;;;;;;;17.50;99.90;;;;;;5006504;28;20083;-72
2022/09/12 04:01:11;;;;;;;;;;;17.50;99.90;;;;;;5005552;28;20306;-72
2022/09/12 04:03:39;;;;;;;;;;;17.50;99.90;;;;;;5008292;28;20093;-72
2022/09/12 04:06:07;;;;;;;;;;;17.20;99.90;;;;;;5010020;28;20589;-71
2022/09/12 04:08:37;;;;;;;;;;;17.30;99.90;;;;;;5009876;28;20238;-72
2022/09/12 04:11:05;;;;;;;;;;;17.60;99.90;;;;;;5006431;28;20282;-71
2022/09/12 04:13:34;;;;;;;;;;;17.70;99.90;;;;;;4998448;28;20594;-73
2022/09/12 04:16:02;;;;;;;;;;;17.40;99.90;;;;;;4998344;28;20154;-72
2022/09/12 04:18:30;;;;;;;;;;;17.00;99.90;;;;;;4996471;28;20242;-71
2022/09/12 04:20:58;;;;;;;;;;;16.60;99.90;;;;;;4993300;28;20217;-71
2022/09/12 04:23:26;;;;;;;;;;;16.30;99.90;;;;;;4993212;28;20886;-71
2022/09/12 04:25:55;;;;;;;;;;;15.90;99.90;;;;;;4999200;28;25066;-71
2022/09/12 04:28:23;;;;;;;;;;;15.60;99.90;;;;;;5007029;28;20302;-70
2022/09/12 04:30:51;;;;;;;;;;;15.30;99.90;;;;;;5000798;28;20780;-71
2022/09/12 04:33:19;;;;;;;;;;;15.10;99.90;;;;;;4998984;28;20710;-71
2022/09/12 04:35:47;;;;;;;;;;;14.80;99.90;;;;;;5002901;28;20679;-71
2022/09/12 04:38:15;;;;;;;;;;;14.70;99.90;;;;;;5003998;28;20788;-71
2022/09/12 04:40:42;;;;;;;;;;;14.60;99.90;;;;;;5001093;28;20240;-71
2022/09/12 04:43:11;;;;;;;;;;;14.50;99.90;;;;;;4998632;28;20965;-71
2022/09/12 04:45:41;;;;;;;;;;;14.40;99.90;;;;;;5000965;28;21477;-71
2022/09/12 04:48:09;;;;;;;;;;;14.30;99.90;;;;;;5000608;28;20798;-71
2022/09/12 04:50:36;;;;;;;;;;;14.20;99.90;;;;;;4999244;28;20199;-71
2022/09/12 04:53:04;;;;;;;;;;;14.20;99.90;;;;;;4999372;28;20132;-71
2022/09/12 04:55:33;;;;;;;;;;;14.10;99.90;;;;;;4999674;28;20257;-71
2022/09/12 04:58:01;;;;;;;;;;;14.00;99.90;;;;;;5003125;28;20113;-71
2022/09/12 05:00:30;;;;;;;;;;;14.00;99.90;;;;;;5001732;28;20070;-74
2022/09/12 05:02:58;;;;;;;;;;;14.00;99.90;;;;;;5000730;28;20770;-73
2022/09/12 05:05:26;;;;;;;;;;;14.00;99.90;;;;;;5000100;28;20674;-71
2022/09/12 05:07:53;;;;;;;;;;;13.90;99.90;;;;;;5002142;28;21333;-71
2022/09/12 05:10:22;;;;;;;;;;;13.90;99.90;;;;;;5000226;28;21683;-71
2022/09/12 05:12:50;;;;;;;;;;;13.80;99.90;;;;;;5000971;28;20712;-71
2022/09/12 05:15:18;;;;;;;;;;;13.80;99.90;;;;;;5000006;28;20490;-70
2022/09/12 05:17:47;;;;;;;;;;;13.80;99.90;;;;;;4999554;28;20965;-71
2022/09/12 05:20:16;;;;;;;;;;;13.80;99.90;;;;;;5001824;28;20808;-71
2022/09/12 05:22:43;;;;;;;;;;;13.80;99.90;;;;;;5005669;28;20381;-72
2022/09/12 05:25:11;;;;;;;;;;;13.80;99.90;;;;;;4997584;28;20107;-70
2022/09/12 05:27:39;;;;;;;;;;;13.90;99.90;;;;;;4995309;28;20876;-70
2022/09/12 05:30:07;;;;;;;;;;;13.80;99.90;;;;;;4993897;28;19982;-70
2022/09/12 05:32:35;;;;;;;;;;;13.90;99.90;;;;;;4998707;28;20622;-70
2022/09/12 05:35:04;;;;;;;;;;;13.90;99.90;;;;;;4997159;28;20850;-70
2022/09/12 05:37:32;;;;;;;;;;;13.90;99.90;;;;;;4997913;28;25075;-71
2022/09/12 05:40:03;;;;;;;;;;;14.00;99.90;;;;;;4994258;28;20697;-72
2022/09/12 05:42:31;;;;;;;;;;;14.00;99.90;;;;;;4996398;28;20061;-72
2022/09/12 05:44:59;;;;;;;;;;;14.10;99.90;;;;;;4992895;28;20846;-73
2022/09/12 05:47:27;;;;;;;;;;;14.10;99.90;;;;;;4994546;28;20403;-71
2022/09/12 05:49:56;;;;;;;;;;;14.10;99.90;;;;;;4996063;28;20300;-72
2022/09/12 05:52:25;;;;;;;;;;;14.10;99.90;;;;;;4997370;28;21768;-72
2022/09/12 05:54:53;;;;;;;;;;;14.10;99.90;;;;;;4995168;28;20054;-72
2022/09/12 05:57:21;;;;;;;;;;;14.20;99.90;;;;;;4997131;28;20449;-73
2022/09/12 05:59:49;;;;;;;;;;;14.20;99.90;;;;;;4994206;28;20715;-73
2022/09/12 06:02:17;;;;;;;;;;;14.20;99.90;;;;;;4993709;28;20169;-71
2022/09/12 06:04:45;;;;;;;;;;;14.30;99.90;;;;;;4993542;28;21919;-71
2022/09/12 06:07:13;;;;;;;;;;;14.40;99.90;;;;;;4997440;28;21169;-72
2022/09/12 06:09:42;;;;;;;;;;;14.40;99.90;;;;;;4993187;28;21260;-72
2022/09/12 06:12:10;;;;;;;;;;;14.40;99.90;;;;;;4983636;28;20535;-72
2022/09/12 06:14:38;;;;;;;;;;;14.40;99.90;;;;;;4999325;28;25077;-71
2022/09/12 06:17:06;;;;;;;;;;;14.50;99.90;;;;;;4996202;28;20333;-71
2022/09/12 06:19:33;;;;;;;;;;;14.50;99.90;;;;;;4998056;28;20364;-71
2022/09/12 06:22:01;;;;;;;;;;;14.60;99.90;;;;;;4998634;28;20221;-71
2022/09/12 06:24:29;;;;;;;;;;;14.60;99.90;;;;;;4999984;28;20214;-72
2022/09/12 06:26:58;;;;;;;;;;;14.80;99.90;;;;;;5003098;28;20202;-71
2022/09/12 06:29:25;;;;;;;;;;;14.80;99.90;;;;;;5000394;28;20130;-71
2022/09/12 06:31:53;;;;;;;;;;;14.90;99.90;;;;;;5000194;28;20069;-71
2022/09/12 06:34:21;;;;;;;;;;;15.00;99.90;;;;;;5001180;28;20242;-72
2022/09/12 06:36:49;;;;;;;;;;;15.10;99.90;;;;;;5003585;28;20205;-73
2022/09/12 06:39:17;;;;;;;;;;;15.10;99.90;;;;;;5000132;28;20238;-74
2022/09/12 06:41:45;;;;;;;;;;;15.20;99.90;;;;;;5001296;28;20299;-72
2022/09/12 06:44:15;;;;;;;;;;;15.20;99.90;;;;;;4997507;28;20604;-76
2022/09/12 06:46:44;;;;;;;;;;;15.30;99.90;;;;;;4999436;28;21423;-74
2022/09/12 06:49:11;;;;;;;;;;;15.30;99.90;;;;;;4996390;28;25075;-72
2022/09/12 06:51:40;;;;;;;;;;;15.40;99.90;;;;;;4999770;28;20190;-74
2022/09/12 06:54:09;;;;;;;;;;;15.50;99.90;;;;;;4996527;28;20109;-72
2022/09/12 06:56:37;;;;;;;;;;;15.50;99.90;;;;;;4996436;28;25105;-73
2022/09/12 06:59:05;;;;;;;;;;;15.60;99.90;;;;;;5004033;28;20065;-73
2022/09/12 07:01:34;;;;;;;;;;;15.60;99.90;;;;;;4996941;28;20277;-72
2022/09/12 07:04:03;;;;;;;;;;;15.70;99.90;;;;;;4996639;28;25092;-74
2022/09/12 07:06:34;;;;;;;;;;;15.80;99.90;;;;;;4994851;28;20724;-72
2022/09/12 07:09:03;;;;;;;;;;;15.90;99.90;;;;;;4996782;28;20634;-70
2022/09/12 07:11:32;;;;;;;;;;;16.00;99.90;;;;;;4996326;28;20359;-70
2022/09/12 07:14:00;;;;;;;;;;;16.00;99.90;;;;;;4994275;28;20212;-72
2022/09/12 07:16:28;;;;;;;;;;;16.20;99.90;;;;;;4995485;28;20090;-72
2022/09/12 07:18:59;;;;;;;;;;;16.30;99.90;;;;;;4997713;28;25081;-73
2022/09/12 07:21:27;;;;;;;;;;;16.40;99.90;;;;;;4997904;28;20110;-74
2022/09/12 07:23:56;;;;;;;;;;;16.50;99.90;;;;;;4992501;28;21265;-72
2022/09/12 07:26:24;;;;;;;;;;;16.50;99.90;;;;;;4995268;28;20429;-73
2022/09/12 07:28:53;;;;;;;;;;;16.70;99.90;;;;;;4995492;28;20235;-73
2022/09/12 07:31:22;;;;;;;;;;;16.90;99.90;;;;;;4995772;28;20296;-74
2022/09/12 07:33:50;;;;;;;;;;;17.10;99.90;;;;;;5000097;28;20251;-71
2022/09/12 07:36:24;;;;;;;;;;;17.20;99.90;;;;;;4994323;28;20252;-71
2022/09/12 07:38:55;;;;;;;;;;;17.40;99.90;;;;;;4995449;28;20325;-71
2022/09/12 07:41:25;;;;;;;;;;;17.40;99.90;;;;;;4994741;28;20091;-72
2022/09/12 07:43:53;;;;;;;;;;;17.60;99.90;;;;;;4995784;28;20252;-72
2022/09/12 07:46:21;;;;;;;;;;;17.60;99.90;;;;;;4996261;28;20632;-72
2022/09/12 07:48:50;;;;;;;;;;;17.50;99.90;;;;;;4994906;28;20218;-71
2022/09/12 07:51:18;;;;;;;;;;;17.50;99.90;;;;;;4999117;28;20204;-74
2022/09/12 07:53:47;;;;;;;;;;;17.60;99.90;;;;;;4992732;28;20202;-73
2022/09/12 07:56:16;;;;;;;;;;;17.70;99.90;;;;;;4994031;28;20211;-73
2022/09/12 07:58:44;;;;;;;;;;;17.80;99.90;;;;;;4996262;28;20711;-73
2022/09/12 08:01:13;;;;;;;;;;;17.90;99.90;;;;;;4993580;28;20203;-73
2022/09/12 08:03:41;;;;;;;;;;;18.00;99.90;;;;;;4992201;28;20206;-71
2022/09/12 08:06:10;;;;;;;;;;;18.00;99.90;;;;;;4995500;28;20223;-70
2022/09/12 08:08:38;;;;;;;;;;;18.20;99.90;;;;;;4998081;28;20292;-72
2022/09/12 08:11:08;;;;;;;;;;;18.20;99.90;;;;;;4998587;28;20203;-72
2022/09/12 08:13:37;;;;;;;;;;;18.30;99.90;;;;;;4994642;28;20287;-72
2022/09/12 08:16:05;;;;;;;;;;;18.30;99.90;;;;;;4999794;28;20672;-72
2022/09/12 08:18:35;;;;;;;;;;;18.40;99.90;;;;;;4994580;28;20202;-74
2022/09/12 08:21:04;;;;;;;;;;;18.50;99.90;;;;;;4998908;28;20207;-72
2022/09/12 08:23:31;;;;;;;;;;;18.60;99.90;;;;;;4992363;28;20225;-73
2022/09/12 08:26:00;;;;;;;;;;;18.50;99.90;;;;;;4993269;28;20223;-73
2022/09/12 08:28:35;;;;;;;;;;;18.50;99.90;;;;;;4995827;28;20095;-72
2022/09/12 08:31:03;;;;;;;;;;;18.60;99.90;;;;;;4996353;28;25061;-73
2022/09/12 08:33:32;;;;;;;;;;;18.80;99.90;;;;;;4998949;28;20169;-73
2022/09/12 08:36:04;;;;;;;;;;;18.90;99.90;;;;;;4998292;28;20217;-74
2022/09/12 08:38:31;;;;;;;;;;;19.10;99.90;;;;;;4994620;28;20205;-72
2022/09/12 08:41:01;;;;;;;;;;;19.20;99.90;;;;;;4996809;28;20207;-72
2022/09/12 08:43:35;;;;;;;;;;;19.40;99.90;;;;;;4995170;28;20218;-71
2022/09/12 08:46:08;;;;;;;;;;;19.60;99.90;;;;;;4997875;28;20278;-71
2022/09/12 08:48:36;;;;;;;;;;;19.70;99.90;;;;;;4994458;28;20199;-72
2022/09/12 08:51:04;;;;;;;;;;;20.00;99.90;;;;;;4993758;28;20291;-71
2022/09/12 08:53:36;;;;;;;;;;;20.10;99.90;;;;;;4992885;28;20702;-71
2022/09/12 08:56:07;;;;;;;;;;;20.20;99.90;;;;;;4997891;28;22246;-72
2022/09/12 08:58:38;;;;;;;;;;;20.30;99.90;;;;;;4994966;28;20229;-72
2022/09/12 09:01:10;;;;;;;;;;;20.50;99.90;;;;;;4997664;28;20195;-72
2022/09/12 09:03:52;;;;;;;;;;;20.60;99.90;;;;;;4992337;28;20207;-72
2022/09/12 09:06:25;;;;;;;;;;;20.70;99.90;;;;;;4993439;28;20855;-71
2022/09/12 09:08:57;;;;;;;;;;;20.80;99.90;;;;;;4996659;28;20691;-72
2022/09/12 09:11:39;;;;;;;;;;;21.00;99.90;;;;;;4995874;28;20782;-71
2022/09/12 09:17:10;;;;;;;;;;;21.30;99.90;;;;;;4996396;28;20184;-71
2022/09/12 09:19:41;;;;;;;;;;;21.60;99.90;;;;;;4992149;28;20884;-72
2022/09/12 09:22:14;;;;;;;;;;;21.90;99.90;;;;;;4997738;28;20229;-71
2022/09/12 09:24:44;;;;;;;;;;;22.20;99.90;;;;;;4991807;28;20226;-71
2022/09/12 09:27:15;;;;;;;;;;;22.20;99.90;;;;;;4993238;28;20202;-71
2022/09/12 09:30:03;;;;;;;;;;;22.30;99.90;;;;;;4995973;28;20195;-72
2022/09/12 09:32:34;;;;;;;;;;;22.20;99.90;;;;;;4996032;28;20195;-71
2022/09/12 09:35:02;;;;;;;;;;;21.90;99.90;;;;;;4992644;28;20210;-71
2022/09/12 09:37:35;;;;;;;;;;;21.60;99.90;;;;;;4996686;28;20207;-71
2022/09/12 09:40:07;;;;;;;;;;;21.60;99.90;;;;;;4994966;28;20569;-71
2022/09/12 09:42:39;;;;;;;;;;;21.70;99.90;;;;;;4998739;28;20069;-71
2022/09/12 09:45:13;;;;;;;;;;;22.00;99.90;;;;;;4991377;28;20723;-72
2022/09/12 09:47:42;;;;;;;;;;;22.30;99.90;;;;;;5001311;28;20210;-72
2022/09/12 09:50:15;;;;;;;;;;;22.60;99.90;;;;;;4996186;28;20210;-71
2022/09/12 09:52:43;;;;;;;;;;;22.90;99.90;;;;;;4997894;28;20227;-72
2022/09/12 09:55:13;;;;;;;;;;;22.80;99.90;;;;;;4997456;28;20801;-72
2022/09/12 09:57:43;;;;;;;;;;;22.90;99.90;;;;;;4999226;28;20210;-71
2022/09/12 10:00:23;;;;;;;;;;;23.20;99.90;;;;;;4996533;28;20203;-72
2022/09/12 10:03:12;;;;;;;;;;;23.20;99.90;;;;;;4995908;28;20210;-71
2022/09/12 10:05:46;;;;;;;;;;;23.20;99.90;;;;;;4992477;28;20219;-71
2022/09/12 10:08:20;;;;;;;;;;;23.60;99.90;;;;;;4995749;28;20204;-71
2022/09/12 10:10:55;;;;;;;;;;;24.00;99.90;;;;;;4997910;28;20200;-72
2022/09/12 10:13:24;;;;;;;;;;;24.30;99.90;;;;;;5000707;28;20302;-72
2022/09/12 10:15:59;;;;;;;;;;;24.60;99.90;;;;;;4998610;28;20729;-71
2022/09/12 10:18:33;;;;;;;;;;;24.50;99.90;;;;;;5001033;28;20072;-73
2022/09/12 10:21:12;;;;;;;;;;;24.10;99.90;;;;;;4995594;28;20213;-72
2022/09/12 10:23:40;;;;;;;;;;;24.00;99.90;;;;;;4994357;28;20754;-71
2022/09/12 10:26:09;;;;;;;;;;;24.20;99.90;;;;;;4974290;28;20218;-73
2022/09/12 10:28:38;;;;;;;;;;;24.00;99.90;;;;;;4975821;28;20207;-72
2022/09/12 10:31:06;;;;;;;;;;;24.00;99.90;;;;;;4974709;28;20196;-71
2022/09/12 10:33:39;;;;;;;;;;;24.30;99.90;;;;;;4974933;28;20730;-72
2022/09/12 10:36:08;;;;;;;;;;;24.70;99.90;;;;;;4974904;28;20260;-72
2022/09/12 10:38:36;;;;;;;;;;;24.60;99.90;;;;;;4976462;28;20207;-74
2022/09/12 10:41:06;;;;;;;;;;;24.70;99.90;;;;;;4975345;28;20195;-71
2022/09/12 10:43:36;;;;;;;;;;;24.70;99.90;;;;;;4974435;28;20204;-72
2022/09/12 10:46:37;;;;;;;;;;;24.50;99.90;;;;;;4974955;28;20948;-72
2022/09/12 10:49:13;;;;;;;;;;;24.40;99.90;;;;;;4892288;29;20206;-73
2022/09/12 10:51:42;;;;;;;;;;;24.40;99.90;;;;;;4895450;29;20236;-72
2022/09/12 10:54:12;;;;;;;;;;;24.50;99.90;;;;;;4930820;28;20226;-72
2022/09/12 10:56:44;;;;;;;;;;;24.70;99.90;;;;;;4974643;28;20210;-72
2022/09/12 10:59:16;;;;;;;;;;;24.80;99.90;;;;;;4974294;28;20199;-72
2022/09/12 11:01:48;;;;;;;;;;;25.00;99.90;;;;;;4974955;28;20212;-71
2022/09/12 11:04:21;;;;;;;;;;;25.10;99.90;;;;;;4974287;28;20212;-71
2022/09/12 11:06:55;;;;;;;;;;;25.00;99.90;;;;;;4974316;28;22045;-72
2022/09/12 11:09:25;;;;;;;;;;;25.20;99.90;;;;;;4975044;28;20204;-72
2022/09/12 11:11:58;;;;;;;;;;;25.50;99.90;;;;;;4974698;28;20200;-72
2022/09/12 11:14:37;;;;;;;;;;;25.90;99.90;;;;;;4973712;28;21242;-72
2022/09/12 11:17:09;;;;;;;;;;;26.10;99.90;;;;;;4974636;28;20657;-71
2022/09/12 11:19:50;;;;;;;;;;;26.20;99.90;;;;;;4973051;28;20200;-71
2022/09/12 11:22:27;;;;;;;;;;;26.30;99.90;;;;;;4975273;28;20208;-72
2022/09/12 11:25:07;;;;;;;;;;;26.50;99.90;;;;;;4985059;28;20213;-71
2022/09/12 11:27:44;;;;;;;;;;;26.60;99.90;;;;;;4994607;28;20590;-71
2022/09/12 11:30:13;;;;;;;;;;;26.80;99.90;;;;;;4994890;28;20205;-72
2022/09/12 11:32:58;;;;;;;;;;;27.10;99.90;;;;;;4994551;28;20822;-71
2022/09/12 11:35:28;;;;;;;;;;;27.40;99.90;;;;;;4997718;28;20225;-71
2022/09/12 11:38:06;;;;;;;;;;;27.40;99.90;;;;;;5000358;28;20264;-71
2022/09/12 11:40:37;;;;;;;;;;;27.50;99.90;;;;;;4997028;28;20191;-71
2022/09/12 11:43:07;;;;;;;;;;;27.90;99.90;;;;;;4994008;28;20213;-71
2022/09/12 11:45:37;;;;;;;;;;;28.40;99.90;;;;;;4994323;28;20227;-72
2022/09/12 11:48:07;;;;;;;;;;;28.30;98.10;;;;;;4995730;28;20210;-72
2022/09/12 11:50:34;;;;;;;;;;;28.20;96.70;;;;;;4994709;28;20629;-72
2022/09/12 11:53:07;;;;;;;;;;;27.70;98.30;;;;;;4994118;28;20659;-72
2022/09/12 11:55:39;;;;;;;;;;;27.50;98.20;;;;;;4994340;28;20223;-72
2022/09/12 11:58:08;;;;;;;;;;;27.40;98.00;;;;;;4993951;28;20200;-72
2022/09/12 12:00:37;;;;;;;;;;;27.60;98.10;;;;;;4995149;28;20559;-71
2022/09/12 12:03:08;;;;;;;;;;;28.20;97.90;;;;;;4992285;28;20593;-72
2022/09/12 12:05:40;;;;;;;;;;;28.80;97.80;;;;;;4994138;28;20199;-72
2022/09/12 12:08:11;;;;;;;;;;;29.40;96.40;;;;;;4994074;28;20216;-72
2022/09/12 12:10:40;;;;;;;;;;;29.40;95.70;;;;;;4994275;28;20199;-72
2022/09/12 12:13:10;;;;;;;;;;;29.30;96.00;;;;;;4993587;28;20203;-72
2022/09/12 12:15:45;;;;;;;;;;;29.20;95.90;;;;;;4995324;28;20217;-72
2022/09/12 12:18:16;;;;;;;;;;;29.20;94.80;;;;;;4994115;28;20225;-71
2022/09/12 12:20:44;;;;;;;;;;;29.10;94.90;;;;;;4994538;28;20199;-72
2022/09/12 12:23:23;;;;;;;;;;;29.20;94.50;;;;;;4993229;28;20207;-71
2022/09/12 12:25:52;;;;;;;;;;;29.30;95.00;;;;;;4994774;28;20217;-72
2022/09/12 12:28:38;;;;;;;;;;;29.50;94.20;;;;;;4995168;28;20686;-71
2022/09/12 12:31:06;;;;;;;;;;;29.70;94.30;;;;;;4994180;28;20210;-72
2022/09/12 12:33:55;;;;;;;;;;;29.60;93.50;;;;;;4993134;28;20199;-71
2022/09/12 12:36:34;;;;;;;;;;;29.50;93.50;;;;;;4994117;28;20212;-72
2022/09/12 12:39:17;;;;;;;;;;;29.00;93.60;;;;;;4995508;28;20199;-72
2022/09/12 12:41:46;;;;;;;;;;;28.10;94.70;;;;;;4992856;28;20215;-71
2022/09/12 12:44:32;;;;;;;;;;;28.30;95.30;;;;;;4993120;28;20214;-72
2022/09/12 12:47:08;;;;;;;;;;;28.50;94.60;;;;;;4994951;28;20203;-72
2022/09/12 12:49:36;;;;;;;;;;;28.70;94.50;;;;;;4994065;28;20204;-71
2022/09/12 12:52:04;;;;;;;;;;;28.90;94.40;;;;;;4994437;28;20199;-71
2022/09/12 12:54:46;;;;;;;;;;;29.40;93.90;;;;;;4995686;28;20573;-72
2022/09/12 12:57:26;;;;;;;;;;;29.60;94.10;;;;;;4995328;28;20621;-73
2022/09/12 12:59:55;;;;;;;;;;;29.80;93.20;;;;;;4993901;28;20203;-72
2022/09/12 13:02:26;;;;;;;;;;;29.80;92.80;;;;;;4994705;28;20203;-71
2022/09/12 13:04:54;;;;;;;;;;;29.80;92.60;;;;;;4996815;28;20203;-72
2022/09/12 13:07:26;;;;;;;;;;;29.90;92.70;;;;;;4993344;28;20207;-73
2022/09/12 13:09:54;;;;;;;;;;;30.10;92.50;;;;;;4994711;28;20203;-72
2022/09/12 13:12:24;;;;;;;;;;;30.20;92.30;;;;;;4995039;28;20218;-71
2022/09/12 13:14:53;;;;;;;;;;;30.30;92.20;;;;;;4992189;28;20199;-72
2022/09/12 13:17:33;;;;;;;;;;;30.40;92.40;;;;;;4993851;28;20207;-71
2022/09/12 13:20:19;;;;;;;;;;;30.80;91.50;;;;;;4993948;28;20229;-73
2022/09/12 13:22:56;;;;;;;;;;;31.00;91.70;;;;;;4995915;28;20211;-71
2022/09/12 13:25:26;;;;;;;;;;;31.00;89.60;;;;;;4998355;28;20222;-72
2022/09/12 13:28:14;;;;;;;;;;;30.90;90.90;;;;;;4997670;28;20203;-71
2022/09/12 13:30:45;;;;;;;;;;;30.90;89.20;;;;;;4989977;28;20211;-70
2022/09/12 13:33:17;;;;;;;;;;;31.30;90.40;;;;;;4996259;28;20201;-72
2022/09/12 13:36:04;;;;;;;;;;;31.80;88.30;;;;;;4997398;28;20231;-71
2022/09/12 13:38:37;;;;;;;;;;;31.90;87.30;;;;;;4998519;28;20207;-72
2022/09/12 13:41:16;;;;;;;;;;;32.30;88.50;;;;;;4997115;28;20221;-71
2022/09/12 13:43:45;;;;;;;;;;;32.20;85.50;;;;;;4995135;28;20385;-71
2022/09/12 13:46:18;;;;;;;;;;;32.30;85.60;;;;;;4996180;28;20696;-71
2022/09/12 13:48:46;;;;;;;;;;;32.90;84.20;;;;;;4997450;28;20231;-72
2022/09/12 13:51:21;;;;;;;;;;;33.10;83.90;;;;;;4997747;28;20258;-72
2022/09/12 13:53:49;;;;;;;;;;;32.70;83.20;;;;;;4994341;28;20688;-72
2022/09/12 13:56:18;;;;;;;;;;;32.50;82.90;;;;;;4998070;28;20217;-72
2022/09/12 13:58:53;;;;;;;;;;;31.90;82.00;;;;;;4997368;28;20089;-72
2022/09/12 14:01:23;;;;;;;;;;;31.80;83.20;;;;;;4997470;28;20068;-72
2022/09/12 14:06:48;;;;;;;;;;;31.70;83.30;;;;;;4996396;28;20581;-71
2022/09/12 14:09:17;;;;;;;;;;;31.60;81.80;;;;;;4997470;28;20206;-72
2022/09/12 14:11:51;;;;;;;;;;;31.40;83.60;;;;;;4996418;28;20208;-72
2022/09/12 14:14:27;;;;;;;;;;;31.70;82.70;;;;;;4995054;28;20230;-71
2022/09/12 14:16:56;;;;;;;;;;;31.70;81.10;;;;;;4996763;28;20859;-72
2022/09/12 14:19:25;;;;;;;;;;;31.90;81.50;;;;;;4996472;28;20586;-72
2022/09/12 14:21:53;;;;;;;;;;;31.70;81.70;;;;;;4996555;28;20238;-72
2022/09/12 14:24:22;;;;;;;;;;;31.70;81.20;;;;;;4994712;28;20214;-72
2022/09/12 14:26:51;;;;;;;;;;;31.40;81.00;;;;;;4997036;28;20203;-72
2022/09/12 14:29:20;;;;;;;;;;;31.70;80.60;;;;;;4996438;28;20209;-72
2022/09/12 14:31:59;;;;;;;;;;;31.70;80.40;;;;;;4996532;28;20226;-72
2022/09/12 14:34:29;;;;;;;;;;;31.30;81.70;;;;;;5000067;28;20570;-72
2022/09/12 14:36:57;;;;;;;;;;;31.20;80.50;;;;;;5001363;28;20203;-72
2022/09/12 14:39:28;;;;;;;;;;;30.90;81.50;;;;;;4995602;28;21398;-72
2022/09/12 14:42:03;;;;;;;;;;;31.00;81.00;;;;;;4996344;28;20211;-71
2022/09/12 14:44:32;;;;;;;;;;;31.10;80.50;;;;;;4995465;28;20207;-71